sensor_id;sensor_type;location;lat;lon;timestamp;pressure;altitude;pressure_sealevel;temperature;humidity
8101;BME280;4093;53.470;9.832;2023-04-23T00:02:23;100470.34;;;20.95;73.36
8101;BME280;4093;53.470;9.832;2023-04-23T00:04:55;100465.91;;;20.95;73.20
8101;BME280;4093;53.470;9.832;2023-04-23T00:07:24;100463.88;;;20.86;73.89
8101;BME280;4093;53.470;9.832;2023-04-23T00:09:54;100466.41;;;20.61;75.24
8101;BME280;4093;53.470;9.832;2023-04-23T00:12:24;100468.59;;;20.54;75.21
8101;BME280;4093;53.470;9.832;2023-04-23T00:14:52;100466.59;;;20.58;75.28
8101;BME280;4093;53.470;9.832;2023-04-23T00:17:20;100469.03;;;20.61;75.30
8101;BME280;4093;53.470;9.832;2023-04-23T00:19:47;100460.63;;;20.27;76.49
8101;BME280;4093;53.470;9.832;2023-04-23T00:22:16;100462.91;;;20.19;77.26
8101;BME280;4093;53.470;9.832;2023-04-23T00:24:45;100460.44;;;20.30;76.69
8101;BME280;4093;53.470;9.832;2023-04-23T00:27:13;100464.56;;;20.20;77.47
8101;BME280;4093;53.470;9.832;2023-04-23T00:29:41;100457.09;;;19.85;78.94
8101;BME280;4093;53.470;9.832;2023-04-23T00:32:09;100470.13;;;20.15;77.17
8101;BME280;4093;53.470;9.832;2023-04-23T00:34:36;100456.16;;;19.86;78.81
8101;BME280;4093;53.470;9.832;2023-04-23T00:37:05;100456.03;;;20.02;77.93
8101;BME280;4093;53.470;9.832;2023-04-23T00:39:34;100455.03;;;20.04;78.24
8101;BME280;4093;53.470;9.832;2023-04-23T00:42:03;100450.16;;;19.98;77.96
8101;BME280;4093;53.470;9.832;2023-04-23T00:44:37;100449.41;;;19.82;78.79
8101;BME280;4093;53.470;9.832;2023-04-23T00:47:05;100446.47;;;19.86;78.34
8101;BME280;4093;53.470;9.832;2023-04-23T00:49:34;100448.00;;;19.91;78.80
8101;BME280;4093;53.470;9.832;2023-04-23T00:52:02;100438.91;;;19.82;78.61
8101;BME280;4093;53.470;9.832;2023-04-23T00:54:30;100440.81;;;19.50;79.74
8101;BME280;4093;53.470;9.832;2023-04-23T00:56:59;100451.16;;;19.23;80.94
8101;BME280;4093;53.470;9.832;2023-04-23T00:59:28;100435.69;;;19.18;81.10
8101;BME280;4093;53.470;9.832;2023-04-23T01:01:57;100443.81;;;19.44;80.50
8101;BME280;4093;53.470;9.832;2023-04-23T01:04:26;100429.22;;;19.09;81.04
8101;BME280;4093;53.470;9.832;2023-04-23T01:06:55;100436.38;;;19.22;80.75
8101;BME280;4093;53.470;9.832;2023-04-23T01:09:24;100436.56;;;19.33;80.00
8101;BME280;4093;53.470;9.832;2023-04-23T01:11:53;100434.88;;;19.32;79.67
8101;BME280;4093;53.470;9.832;2023-04-23T01:14:22;100433.69;;;19.37;79.19
8101;BME280;4093;53.470;9.832;2023-04-23T01:16:50;100433.66;;;18.93;81.38
8101;BME280;4093;53.470;9.832;2023-04-23T01:19:18;100431.31;;;18.72;82.72
8101;BME280;4093;53.470;9.832;2023-04-23T01:21:46;100437.50;;;19.02;80.53
8101;BME280;4093;53.470;9.832;2023-04-23T01:24:15;100434.50;;;18.93;80.65
8101;BME280;4093;53.470;9.832;2023-04-23T01:26:42;100441.63;;;18.76;81.98
8101;BME280;4093;53.470;9.832;2023-04-23T01:29:11;100441.06;;;19.01;81.24
8101;BME280;4093;53.470;9.832;2023-04-23T01:31:39;100430.97;;;18.79;80.93
8101;BME280;4093;53.470;9.832;2023-04-23T01:34:08;100438.91;;;18.93;80.94
8101;BME280;4093;53.470;9.832;2023-04-23T01:36:37;100445.72;;;18.95;80.91
8101;BME280;4093;53.470;9.832;2023-04-23T01:39:05;100441.78;;;18.72;81.84
8101;BME280;4093;53.470;9.832;2023-04-23T01:41:34;100445.41;;;19.16;80.02
8101;BME280;4093;53.470;9.832;2023-04-23T01:44:02;100442.66;;;19.03;80.66
8101;BME280;4093;53.470;9.832;2023-04-23T01:46:30;100440.31;;;18.83;81.14
8101;BME280;4093;53.470;9.832;2023-04-23T01:48:58;100466.16;;;19.05;80.87
8101;BME280;4093;53.470;9.832;2023-04-23T01:51:28;100471.91;;;17.48;82.65
8101;BME280;4093;53.470;9.832;2023-04-23T01:53:55;100484.03;;;17.67;79.43
8101;BME280;4093;53.470;9.832;2023-04-23T01:56:25;100497.22;;;16.56;84.50
8101;BME280;4093;53.470;9.832;2023-04-23T01:58:54;100484.03;;;16.59;83.17
8101;BME280;4093;53.470;9.832;2023-04-23T02:01:22;100498.47;;;17.04;81.94
8101;BME280;4093;53.470;9.832;2023-04-23T02:03:50;100491.03;;;16.59;82.31
8101;BME280;4093;53.470;9.832;2023-04-23T02:06:18;100510.22;;;16.39;83.63
8101;BME280;4093;53.470;9.832;2023-04-23T02:08:46;100494.19;;;15.88;83.69
8101;BME280;4093;53.470;9.832;2023-04-23T02:11:13;100505.84;;;16.39;82.41
8101;BME280;4093;53.470;9.832;2023-04-23T02:13:41;100505.28;;;16.52;82.14
8101;BME280;4093;53.470;9.832;2023-04-23T02:16:10;100505.75;;;16.22;82.24
8101;BME280;4093;53.470;9.832;2023-04-23T02:18:38;100507.94;;;16.31;81.06
8101;BME280;4093;53.470;9.832;2023-04-23T02:21:06;100504.28;;;15.96;82.93
8101;BME280;4093;53.470;9.832;2023-04-23T02:23:34;100508.28;;;15.84;83.95
8101;BME280;4093;53.470;9.832;2023-04-23T02:26:01;100513.97;;;15.73;84.29
8101;BME280;4093;53.470;9.832;2023-04-23T02:28:29;100512.06;;;15.77;84.28
8101;BME280;4093;53.470;9.832;2023-04-23T02:30:57;100511.06;;;16.39;81.57
8101;BME280;4093;53.470;9.832;2023-04-23T02:33:26;100517.03;;;15.83;83.77
8101;BME280;4093;53.470;9.832;2023-04-23T02:35:53;100512.38;;;16.29;81.24
8101;BME280;4093;53.470;9.832;2023-04-23T02:38:21;100469.50;;;15.77;81.56
8101;BME280;4093;53.470;9.832;2023-04-23T02:40:49;100519.25;;;15.92;82.43
8101;BME280;4093;53.470;9.832;2023-04-23T02:43:16;100512.13;;;15.76;83.06
8101;BME280;4093;53.470;9.832;2023-04-23T02:45:44;100518.47;;;15.70;83.11
8101;BME280;4093;53.470;9.832;2023-04-23T02:48:12;100522.25;;;16.41;80.64
8101;BME280;4093;53.470;9.832;2023-04-23T02:50:41;100521.41;;;16.60;80.25
8101;BME280;4093;53.470;9.832;2023-04-23T02:53:09;100518.09;;;16.18;81.18
8101;BME280;4093;53.470;9.832;2023-04-23T02:55:36;100528.06;;;16.09;80.90
8101;BME280;4093;53.470;9.832;2023-04-23T02:58:04;100527.97;;;16.31;80.22
8101;BME280;4093;53.470;9.832;2023-04-23T03:00:32;100531.69;;;16.25;81.37
8101;BME280;4093;53.470;9.832;2023-04-23T03:02:59;100532.97;;;16.35;79.56
8101;BME280;4093;53.470;9.832;2023-04-23T03:05:27;100536.47;;;16.36;79.24
8101;BME280;4093;53.470;9.832;2023-04-23T03:07:57;100527.25;;;15.88;80.85
8101;BME280;4093;53.470;9.832;2023-04-23T03:10:24;100523.38;;;15.56;82.09
8101;BME280;4093;53.470;9.832;2023-04-23T03:12:52;100535.00;;;15.69;82.36
8101;BME280;4093;53.470;9.832;2023-04-23T03:15:20;100540.84;;;16.15;80.54
8101;BME280;4093;53.470;9.832;2023-04-23T03:17:47;100544.66;;;15.67;81.49
8101;BME280;4093;53.470;9.832;2023-04-23T03:20:16;100544.59;;;15.68;81.88
8101;BME280;4093;53.470;9.832;2023-04-23T03:22:44;100550.72;;;15.66;82.57
8101;BME280;4093;53.470;9.832;2023-04-23T03:25:13;100554.16;;;15.88;80.85
8101;BME280;4093;53.470;9.832;2023-04-23T03:27:41;100554.63;;;15.78;80.25
8101;BME280;4093;53.470;9.832;2023-04-23T03:30:10;100546.06;;;15.32;82.03
8101;BME280;4093;53.470;9.832;2023-04-23T03:32:38;100550.97;;;14.95;83.18
8101;BME280;4093;53.470;9.832;2023-04-23T03:35:06;100553.63;;;15.16;82.87
8101;BME280;4093;53.470;9.832;2023-04-23T03:37:35;100546.53;;;14.97;83.00
8101;BME280;4093;53.470;9.832;2023-04-23T03:40:03;100561.69;;;15.32;82.01
8101;BME280;4093;53.470;9.832;2023-04-23T03:42:34;100561.50;;;15.36;81.97
8101;BME280;4093;53.470;9.832;2023-04-23T03:45:02;100563.69;;;15.47;80.90
8101;BME280;4093;53.470;9.832;2023-04-23T03:47:30;100554.06;;;15.27;81.89
8101;BME280;4093;53.470;9.832;2023-04-23T03:49:58;100551.88;;;14.94;82.52
8101;BME280;4093;53.470;9.832;2023-04-23T03:52:26;100555.88;;;15.25;81.94
8101;BME280;4093;53.470;9.832;2023-04-23T03:54:53;100552.72;;;15.39;81.15
8101;BME280;4093;53.470;9.832;2023-04-23T03:57:21;100549.50;;;15.32;81.90
8101;BME280;4093;53.470;9.832;2023-04-23T03:59:50;100557.28;;;15.76;81.03
8101;BME280;4093;53.470;9.832;2023-04-23T04:02:18;100550.66;;;15.89;79.30
8101;BME280;4093;53.470;9.832;2023-04-23T04:04:46;100549.75;;;15.90;79.36
8101;BME280;4093;53.470;9.832;2023-04-23T04:07:15;100550.41;;;15.95;79.88
8101;BME280;4093;53.470;9.832;2023-04-23T04:09:43;100557.22;;;15.98;79.21
8101;BME280;4093;53.470;9.832;2023-04-23T04:12:12;100554.56;;;16.00;78.89
8101;BME280;4093;53.470;9.832;2023-04-23T04:14:39;100548.50;;;15.79;78.96
8101;BME280;4093;53.470;9.832;2023-04-23T04:17:09;100551.09;;;15.79;78.93
8101;BME280;4093;53.470;9.832;2023-04-23T04:19:37;100555.22;;;15.62;78.73
8101;BME280;4093;53.470;9.832;2023-04-23T04:22:05;100561.72;;;15.94;78.01
8101;BME280;4093;53.470;9.832;2023-04-23T04:24:33;100557.22;;;15.98;77.96
8101;BME280;4093;53.470;9.832;2023-04-23T04:27:01;100559.16;;;15.30;79.21
8101;BME280;4093;53.470;9.832;2023-04-23T04:29:28;100566.66;;;15.38;78.74
8101;BME280;4093;53.470;9.832;2023-04-23T04:31:56;100501.16;;;14.83;79.51
8101;BME280;4093;53.470;9.832;2023-04-23T04:34:26;100573.19;;;15.26;80.03
8101;BME280;4093;53.470;9.832;2023-04-23T04:36:54;100576.16;;;15.61;78.04
8101;BME280;4093;53.470;9.832;2023-04-23T04:39:22;100575.53;;;15.76;77.47
8101;BME280;4093;53.470;9.832;2023-04-23T04:41:50;100571.56;;;15.67;78.12
8101;BME280;4093;53.470;9.832;2023-04-23T04:44:18;100578.56;;;15.87;76.49
8101;BME280;4093;53.470;9.832;2023-04-23T04:46:46;100582.94;;;15.65;76.67
8101;BME280;4093;53.470;9.832;2023-04-23T04:49:14;100580.09;;;15.71;76.50
8101;BME280;4093;53.470;9.832;2023-04-23T04:51:46;100580.22;;;15.68;76.47
8101;BME280;4093;53.470;9.832;2023-04-23T04:54:14;100581.38;;;15.61;75.29
8101;BME280;4093;53.470;9.832;2023-04-23T04:56:41;100578.94;;;15.56;76.12
8101;BME280;4093;53.470;9.832;2023-04-23T04:59:09;100588.41;;;15.59;75.92
8101;BME280;4093;53.470;9.832;2023-04-23T05:01:37;100590.22;;;15.57;76.27
8101;BME280;4093;53.470;9.832;2023-04-23T05:04:05;100590.94;;;15.38;75.86
8101;BME280;4093;53.470;9.832;2023-04-23T05:06:33;100587.56;;;15.36;75.85
8101;BME280;4093;53.470;9.832;2023-04-23T05:09:02;100594.53;;;15.58;76.34
8101;BME280;4093;53.470;9.832;2023-04-23T05:11:30;100601.19;;;15.87;74.92
8101;BME280;4093;53.470;9.832;2023-04-23T05:13:58;100594.53;;;15.80;73.84
8101;BME280;4093;53.470;9.832;2023-04-23T05:16:25;100597.97;;;15.80;73.18
8101;BME280;4093;53.470;9.832;2023-04-23T05:18:53;100605.31;;;15.48;74.51
8101;BME280;4093;53.470;9.832;2023-04-23T05:21:21;100605.09;;;15.55;74.20
8101;BME280;4093;53.470;9.832;2023-04-23T05:23:49;100607.69;;;15.55;73.06
8101;BME280;4093;53.470;9.832;2023-04-23T05:26:18;100604.44;;;15.48;73.41
8101;BME280;4093;53.470;9.832;2023-04-23T05:28:46;100606.09;;;15.50;72.87
8101;BME280;4093;53.470;9.832;2023-04-23T05:31:13;100607.06;;;15.48;73.18
8101;BME280;4093;53.470;9.832;2023-04-23T05:33:41;100611.63;;;15.43;73.35
8101;BME280;4093;53.470;9.832;2023-04-23T05:36:16;100593.53;;;14.94;73.83
8101;BME280;4093;53.470;9.832;2023-04-23T05:38:43;100614.28;;;15.41;72.42
8101;BME280;4093;53.470;9.832;2023-04-23T05:41:11;100610.47;;;15.50;73.35
8101;BME280;4093;53.470;9.832;2023-04-23T05:43:41;100622.16;;;15.84;71.75
8101;BME280;4093;53.470;9.832;2023-04-23T05:46:09;100614.50;;;15.57;72.79
8101;BME280;4093;53.470;9.832;2023-04-23T05:48:37;100619.00;;;15.32;73.46
8101;BME280;4093;53.470;9.832;2023-04-23T05:51:04;100624.41;;;15.27;73.92
8101;BME280;4093;53.470;9.832;2023-04-23T05:53:32;100628.34;;;15.59;73.62
8101;BME280;4093;53.470;9.832;2023-04-23T05:56:00;100630.25;;;15.32;72.70
8101;BME280;4093;53.470;9.832;2023-04-23T05:58:28;100626.28;;;15.23;74.30
8101;BME280;4093;53.470;9.832;2023-04-23T06:00:57;100637.47;;;15.71;71.86
8101;BME280;4093;53.470;9.832;2023-04-23T06:03:25;100617.47;;;15.48;72.34
8101;BME280;4093;53.470;9.832;2023-04-23T06:05:53;100621.72;;;15.50;73.14
8101;BME280;4093;53.470;9.832;2023-04-23T06:08:21;100626.91;;;15.74;72.06
8101;BME280;4093;53.470;9.832;2023-04-23T06:10:50;100624.53;;;15.90;71.94
8101;BME280;4093;53.470;9.832;2023-04-23T06:13:18;100616.97;;;15.40;73.87
8101;BME280;4093;53.470;9.832;2023-04-23T06:15:46;100624.69;;;15.85;73.74
8101;BME280;4093;53.470;9.832;2023-04-23T06:18:15;100618.06;;;16.19;71.13
8101;BME280;4093;53.470;9.832;2023-04-23T06:20:43;100613.44;;;16.05;71.77
8101;BME280;4093;53.470;9.832;2023-04-23T06:23:11;100598.50;;;16.09;70.54
8101;BME280;4093;53.470;9.832;2023-04-23T06:25:39;100615.47;;;15.99;71.80
8101;BME280;4093;53.470;9.832;2023-04-23T06:28:07;100625.28;;;15.71;72.24
8101;BME280;4093;53.470;9.832;2023-04-23T06:30:34;100612.38;;;15.68;71.57
8101;BME280;4093;53.470;9.832;2023-04-23T06:33:02;100614.50;;;15.35;72.39
8101;BME280;4093;53.470;9.832;2023-04-23T06:35:31;100607.47;;;14.93;73.94
8101;BME280;4093;53.470;9.832;2023-04-23T06:37:59;100623.81;;;14.97;74.46
8101;BME280;4093;53.470;9.832;2023-04-23T06:40:26;100592.34;;;15.25;73.68
8101;BME280;4093;53.470;9.832;2023-04-23T06:42:54;100603.13;;;15.82;71.92
8101;BME280;4093;53.470;9.832;2023-04-23T06:45:22;100606.25;;;15.90;71.89
8101;BME280;4093;53.470;9.832;2023-04-23T06:47:49;100614.47;;;15.81;71.52
8101;BME280;4093;53.470;9.832;2023-04-23T06:50:17;100608.34;;;16.23;69.78
8101;BME280;4093;53.470;9.832;2023-04-23T06:52:47;100611.09;;;15.99;69.97
8101;BME280;4093;53.470;9.832;2023-04-23T06:55:14;100610.38;;;16.36;70.07
8101;BME280;4093;53.470;9.832;2023-04-23T06:57:42;100610.38;;;16.36;69.40
8101;BME280;4093;53.470;9.832;2023-04-23T07:00:11;100616.56;;;16.34;68.78
8101;BME280;4093;53.470;9.832;2023-04-23T07:02:39;100616.97;;;16.25;69.99
8101;BME280;4093;53.470;9.832;2023-04-23T07:05:08;100615.34;;;16.02;69.88
8101;BME280;4093;53.470;9.832;2023-04-23T07:07:36;100615.66;;;15.94;70.36
8101;BME280;4093;53.470;9.832;2023-04-23T07:10:06;100614.09;;;16.10;69.49
8101;BME280;4093;53.470;9.832;2023-04-23T07:12:35;100619.44;;;16.28;69.73
8101;BME280;4093;53.470;9.832;2023-04-23T07:15:04;100619.97;;;16.36;69.36
8101;BME280;4093;53.470;9.832;2023-04-23T07:17:32;100617.63;;;16.30;68.62
8101;BME280;4093;53.470;9.832;2023-04-23T07:19:59;100614.25;;;16.47;68.68
8101;BME280;4093;53.470;9.832;2023-04-23T07:22:30;100605.00;;;16.39;68.71
8101;BME280;4093;53.470;9.832;2023-04-23T07:24:58;100616.66;;;16.51;68.32
8101;BME280;4093;53.470;9.832;2023-04-23T07:27:27;100604.19;;;16.18;69.02
8101;BME280;4093;53.470;9.832;2023-04-23T07:29:55;100612.09;;;15.53;70.17
8101;BME280;4093;53.470;9.832;2023-04-23T07:32:23;100607.81;;;15.94;68.84
8101;BME280;4093;53.470;9.832;2023-04-23T07:34:53;100605.88;;;16.19;68.75
8101;BME280;4093;53.470;9.832;2023-04-23T07:37:21;100607.44;;;16.63;67.85
8101;BME280;4093;53.470;9.832;2023-04-23T07:39:49;100605.06;;;16.58;67.30
8101;BME280;4093;53.470;9.832;2023-04-23T07:42:18;100606.38;;;16.87;67.21
8101;BME280;4093;53.470;9.832;2023-04-23T07:44:48;100604.16;;;18.06;64.46
8101;BME280;4093;53.470;9.832;2023-04-23T07:47:15;100596.59;;;17.83;63.89
8101;BME280;4093;53.470;9.832;2023-04-23T07:49:43;100589.91;;;17.94;63.70
8101;BME280;4093;53.470;9.832;2023-04-23T07:52:11;100585.34;;;17.63;62.90
8101;BME280;4093;53.470;9.832;2023-04-23T07:54:38;100603.88;;;17.58;63.76
8101;BME280;4093;53.470;9.832;2023-04-23T07:57:06;100599.69;;;17.54;63.19
8101;BME280;4093;53.470;9.832;2023-04-23T07:59:34;100597.84;;;17.93;62.60
8101;BME280;4093;53.470;9.832;2023-04-23T08:02:03;100590.84;;;17.93;63.31
8101;BME280;4093;53.470;9.832;2023-04-23T08:04:31;100590.47;;;17.84;62.60
8101;BME280;4093;53.470;9.832;2023-04-23T08:06:59;100572.03;;;17.50;64.16
8101;BME280;4093;53.470;9.832;2023-04-23T08:09:26;100589.38;;;17.34;64.46
8101;BME280;4093;53.470;9.832;2023-04-23T08:11:54;100574.84;;;17.28;64.35
8101;BME280;4093;53.470;9.832;2023-04-23T08:14:22;100575.91;;;17.24;64.71
8101;BME280;4093;53.470;9.832;2023-04-23T08:16:50;100573.41;;;17.40;64.55
8101;BME280;4093;53.470;9.832;2023-04-23T08:19:19;100575.91;;;17.95;63.26
8101;BME280;4093;53.470;9.832;2023-04-23T08:21:47;100564.63;;;17.77;62.36
8101;BME280;4093;53.470;9.832;2023-04-23T08:24:15;100570.34;;;18.52;61.03
8101;BME280;4093;53.470;9.832;2023-04-23T08:26:43;100563.41;;;18.51;61.38
8101;BME280;4093;53.470;9.832;2023-04-23T08:29:11;100568.38;;;19.05;59.92
8101;BME280;4093;53.470;9.832;2023-04-23T08:31:40;100565.34;;;18.14;61.41
8101;BME280;4093;53.470;9.832;2023-04-23T08:34:08;100569.03;;;18.10;61.89
8101;BME280;4093;53.470;9.832;2023-04-23T08:36:37;100561.88;;;18.47;61.67
8101;BME280;4093;53.470;9.832;2023-04-23T08:39:05;100572.03;;;19.02;60.30
8101;BME280;4093;53.470;9.832;2023-04-23T08:41:39;100556.47;;;19.45;59.21
8101;BME280;4093;53.470;9.832;2023-04-23T08:44:12;100573.41;;;19.39;58.83
8101;BME280;4093;53.470;9.832;2023-04-23T08:46:44;100574.63;;;18.86;60.75
8101;BME280;4093;53.470;9.832;2023-04-23T08:49:13;100573.56;;;19.36;59.32
8101;BME280;4093;53.470;9.832;2023-04-23T08:51:47;100575.22;;;18.76;60.58
8101;BME280;4093;53.470;9.832;2023-04-23T08:54:20;100573.03;;;19.15;59.75
8101;BME280;4093;53.470;9.832;2023-04-23T08:56:48;100569.72;;;20.47;56.47
8101;BME280;4093;53.470;9.832;2023-04-23T08:59:17;100567.88;;;21.05;56.00
8101;BME280;4093;53.470;9.832;2023-04-23T09:01:46;100560.53;;;21.77;53.04
8101;BME280;4093;53.470;9.832;2023-04-23T09:04:14;100553.19;;;21.94;52.37
8101;BME280;4093;53.470;9.832;2023-04-23T09:06:46;100549.66;;;21.29;55.05
8101;BME280;4093;53.470;9.832;2023-04-23T09:09:15;100554.78;;;20.90;54.76
8101;BME280;4093;53.470;9.832;2023-04-23T09:11:43;100557.84;;;21.24;53.64
8101;BME280;4093;53.470;9.832;2023-04-23T09:14:11;100564.31;;;19.61;58.06
8101;BME280;4093;53.470;9.832;2023-04-23T09:16:39;100556.78;;;20.15;56.05
8101;BME280;4093;53.470;9.832;2023-04-23T09:19:09;100545.97;;;20.05;56.66
8101;BME280;4093;53.470;9.832;2023-04-23T09:21:38;100544.00;;;20.38;56.30
8101;BME280;4093;53.470;9.832;2023-04-23T09:24:09;100535.38;;;19.62;58.47
8101;BME280;4093;53.470;9.832;2023-04-23T09:26:43;100544.72;;;19.06;58.31
8101;BME280;4093;53.470;9.832;2023-04-23T09:29:12;100551.50;;;20.01;57.36
8101;BME280;4093;53.470;9.832;2023-04-23T09:31:43;100543.41;;;19.29;57.85
8101;BME280;4093;53.470;9.832;2023-04-23T09:34:11;100543.81;;;19.98;57.22
8101;BME280;4093;53.470;9.832;2023-04-23T09:36:41;100547.09;;;19.41;58.00
8101;BME280;4093;53.470;9.832;2023-04-23T09:39:12;100542.47;;;19.30;59.22
8101;BME280;4093;53.470;9.832;2023-04-23T09:41:40;100538.00;;;19.62;57.81
8101;BME280;4093;53.470;9.832;2023-04-23T09:44:08;100534.97;;;19.08;58.63
8101;BME280;4093;53.470;9.832;2023-04-23T09:46:39;100539.44;;;19.22;58.39
8101;BME280;4093;53.470;9.832;2023-04-23T09:49:09;100548.22;;;20.11;58.48
8101;BME280;4093;53.470;9.832;2023-04-23T09:51:38;100548.69;;;20.75;55.06
8101;BME280;4093;53.470;9.832;2023-04-23T09:54:12;100507.88;;;20.27;56.11
8101;BME280;4093;53.470;9.832;2023-04-23T09:56:40;100528.72;;;20.01;56.94
8101;BME280;4093;53.470;9.832;2023-04-23T09:59:24;100531.41;;;20.43;54.52
8101;BME280;4093;53.470;9.832;2023-04-23T10:02:12;100522.06;;;20.10;55.26
8101;BME280;4093;53.470;9.832;2023-04-23T10:04:40;100522.03;;;20.67;53.84
8101;BME280;4093;53.470;9.832;2023-04-23T10:07:08;100508.75;;;20.13;54.49
8101;BME280;4093;53.470;9.832;2023-04-23T10:09:43;100518.50;;;18.59;56.43
8101;BME280;4093;53.470;9.832;2023-04-23T10:12:12;100520.06;;;18.61;55.77
8101;BME280;4093;53.470;9.832;2023-04-23T10:14:45;100529.44;;;18.34;57.25
8101;BME280;4093;53.470;9.832;2023-04-23T10:17:14;100532.50;;;19.05;58.14
8101;BME280;4093;53.470;9.832;2023-04-23T10:19:43;100530.34;;;20.18;55.03
8101;BME280;4093;53.470;9.832;2023-04-23T10:22:13;100521.56;;;20.46;53.87
8101;BME280;4093;53.470;9.832;2023-04-23T10:24:51;100515.75;;;19.54;55.38
8101;BME280;4093;53.470;9.832;2023-04-23T10:27:21;100517.72;;;19.50;55.40
8101;BME280;4093;53.470;9.832;2023-04-23T10:30:10;100522.72;;;20.14;54.51
8101;BME280;4093;53.470;9.832;2023-04-23T10:32:40;100514.72;;;20.99;52.55
8101;BME280;4093;53.470;9.832;2023-04-23T10:35:08;100513.09;;;19.09;56.04
8101;BME280;4093;53.470;9.832;2023-04-23T10:37:37;100514.25;;;19.66;56.74
8101;BME280;4093;53.470;9.832;2023-04-23T10:40:08;100520.84;;;20.30;55.47
8101;BME280;4093;53.470;9.832;2023-04-23T10:42:38;100514.09;;;20.40;55.95
8101;BME280;4093;53.470;9.832;2023-04-23T10:45:13;100505.91;;;19.43;56.28
8101;BME280;4093;53.470;9.832;2023-04-23T10:47:52;100512.44;;;19.66;56.60
8101;BME280;4093;53.470;9.832;2023-04-23T10:50:22;100510.72;;;20.09;56.59
8101;BME280;4093;53.470;9.832;2023-04-23T10:52:50;100512.13;;;20.29;54.29
8101;BME280;4093;53.470;9.832;2023-04-23T10:55:21;100502.84;;;19.81;54.45
8101;BME280;4093;53.470;9.832;2023-04-23T10:57:54;100497.75;;;19.92;55.11
8101;BME280;4093;53.470;9.832;2023-04-23T11:00:27;100504.06;;;20.18;56.08
8101;BME280;4093;53.470;9.832;2023-04-23T11:02:55;100499.09;;;21.11;53.33
8101;BME280;4093;53.470;9.832;2023-04-23T11:05:23;100495.13;;;19.92;53.69
8101;BME280;4093;53.470;9.832;2023-04-23T11:08:03;100496.50;;;20.96;53.29
8101;BME280;4093;53.470;9.832;2023-04-23T11:10:50;100493.25;;;21.33;51.97
8101;BME280;4093;53.470;9.832;2023-04-23T11:13:22;100488.75;;;20.95;53.00
8101;BME280;4093;53.470;9.832;2023-04-23T11:16:11;100489.72;;;21.46;52.66
8101;BME280;4093;53.470;9.832;2023-04-23T11:18:59;100496.50;;;20.96;53.64
8101;BME280;4093;53.470;9.832;2023-04-23T11:22:00;100486.06;;;21.09;52.24
8101;BME280;4093;53.470;9.832;2023-04-23T11:24:30;100487.16;;;20.65;51.67
8101;BME280;4093;53.470;9.832;2023-04-23T11:26:59;100471.97;;;20.27;53.71
8101;BME280;4093;53.470;9.832;2023-04-23T11:29:28;100483.28;;;20.98;51.99
8101;BME280;4093;53.470;9.832;2023-04-23T11:31:56;100462.28;;;20.84;50.95
8101;BME280;4093;53.470;9.832;2023-04-23T11:34:29;100461.53;;;20.69;52.90
8101;BME280;4093;53.470;9.832;2023-04-23T11:36:58;100467.78;;;21.33;51.79
8101;BME280;4093;53.470;9.832;2023-04-23T11:39:26;100465.66;;;21.13;50.70
8101;BME280;4093;53.470;9.832;2023-04-23T11:41:54;100456.81;;;21.79;50.24
8101;BME280;4093;53.470;9.832;2023-04-23T11:44:23;100421.97;;;21.50;51.56
8101;BME280;4093;53.470;9.832;2023-04-23T11:46:51;100448.91;;;21.01;52.05
8101;BME280;4093;53.470;9.832;2023-04-23T11:49:21;100458.94;;;20.26;52.74
8101;BME280;4093;53.470;9.832;2023-04-23T11:51:49;100453.75;;;20.80;52.04
8101;BME280;4093;53.470;9.832;2023-04-23T11:54:17;100444.03;;;21.22;49.85
8101;BME280;4093;53.470;9.832;2023-04-23T11:56:45;100450.38;;;21.83;50.05
8101;BME280;4093;53.470;9.832;2023-04-23T11:59:13;100446.19;;;21.55;51.30
8101;BME280;4093;53.470;9.832;2023-04-23T12:01:44;100446.75;;;22.35;49.61
8101;BME280;4093;53.470;9.832;2023-04-23T12:04:13;100440.94;;;22.67;48.17
8101;BME280;4093;53.470;9.832;2023-04-23T12:06:44;100423.00;;;22.72;48.25
8101;BME280;4093;53.470;9.832;2023-04-23T12:09:14;100432.44;;;22.63;48.52
8101;BME280;4093;53.470;9.832;2023-04-23T12:11:43;100426.59;;;21.98;47.58
8101;BME280;4093;53.470;9.832;2023-04-23T12:14:12;100424.44;;;21.13;50.30
8101;BME280;4093;53.470;9.832;2023-04-23T12:16:43;100438.38;;;21.79;48.38
8101;BME280;4093;53.470;9.832;2023-04-23T12:19:15;100426.78;;;22.20;48.78
8101;BME280;4093;53.470;9.832;2023-04-23T12:21:49;100437.13;;;22.71;47.53
8101;BME280;4093;53.470;9.832;2023-04-23T12:24:21;100420.19;;;21.63;48.14
8101;BME280;4093;53.470;9.832;2023-04-23T12:26:50;100436.88;;;22.13;49.30
8101;BME280;4093;53.470;9.832;2023-04-23T12:29:20;100438.31;;;21.15;50.11
8101;BME280;4093;53.470;9.832;2023-04-23T12:31:51;100424.66;;;21.23;49.32
8101;BME280;4093;53.470;9.832;2023-04-23T12:34:20;100429.06;;;22.12;49.49
8101;BME280;4093;53.470;9.832;2023-04-23T12:36:49;100421.19;;;21.22;49.69
8101;BME280;4093;53.470;9.832;2023-04-23T12:39:22;100436.16;;;21.99;48.90
8101;BME280;4093;53.470;9.832;2023-04-23T12:41:52;100429.25;;;21.59;49.35
8101;BME280;4093;53.470;9.832;2023-04-23T12:44:20;100434.09;;;21.78;49.86
8101;BME280;4093;53.470;9.832;2023-04-23T12:46:56;100438.88;;;22.59;48.70
8101;BME280;4093;53.470;9.832;2023-04-23T12:49:25;100428.88;;;23.00;45.86
8101;BME280;4093;53.470;9.832;2023-04-23T12:51:54;100414.34;;;22.22;47.82
8101;BME280;4093;53.470;9.832;2023-04-23T12:54:27;100423.91;;;22.23;48.41
8101;BME280;4093;53.470;9.832;2023-04-23T12:56:56;100417.19;;;22.43;48.08
8101;BME280;4093;53.470;9.832;2023-04-23T12:59:25;100421.09;;;22.50;47.92
8101;BME280;4093;53.470;9.832;2023-04-23T13:01:53;100428.97;;;22.26;48.46
8101;BME280;4093;53.470;9.832;2023-04-23T13:04:22;100410.56;;;22.50;47.70
8101;BME280;4093;53.470;9.832;2023-04-23T13:06:50;100421.03;;;22.63;48.04
8101;BME280;4093;53.470;9.832;2023-04-23T13:09:17;100414.59;;;22.67;48.24
8101;BME280;4093;53.470;9.832;2023-04-23T13:11:47;100414.47;;;22.69;48.03
8101;BME280;4093;53.470;9.832;2023-04-23T13:14:15;100415.81;;;22.74;48.06
8101;BME280;4093;53.470;9.832;2023-04-23T13:16:43;100408.59;;;22.15;48.39
8101;BME280;4093;53.470;9.832;2023-04-23T13:19:11;100401.34;;;22.80;48.59
8101;BME280;4093;53.470;9.832;2023-04-23T13:21:41;100398.72;;;23.15;48.11